createdAt,value
2018-05-16T00:00:09.477Z,94937
2018-05-16T00:02:45.648Z,94933
2018-05-16T00:05:21.222Z,94935
2018-05-16T00:07:56.690Z,94937
2018-05-16T00:10:32.286Z,94933
2018-05-16T00:13:07.776Z,94936
2018-05-16T00:15:43.360Z,94933
2018-05-16T00:18:18.920Z,94935
2018-05-16T00:20:54.388Z,94932
2018-05-16T00:23:29.839Z,94935
2018-05-16T00:26:05.341Z,94941
2018-05-16T00:28:40.917Z,94942
2018-05-16T00:31:17.340Z,94937
2018-05-16T00:33:52.728Z,94937
2018-05-16T00:36:28.327Z,94934
2018-05-16T00:39:04.141Z,94933
2018-05-16T00:41:39.656Z,94936
2018-05-16T00:44:15.137Z,94944
2018-05-16T00:46:50.796Z,94946
2018-05-16T00:49:26.359Z,94940
2018-05-16T00:52:01.855Z,94933
2018-05-16T00:54:37.317Z,94939
2018-05-16T00:57:12.897Z,94937
2018-05-16T00:59:49.197Z,94938
2018-05-16T01:02:24.752Z,94942
2018-05-16T01:05:00.325Z,94939
2018-05-16T01:07:36.000Z,94936
2018-05-16T01:10:11.596Z,94934
2018-05-16T01:12:47.069Z,94940
2018-05-16T01:15:22.696Z,94940
2018-05-16T01:17:58.297Z,94937
2018-05-16T01:20:33.937Z,94939
2018-05-16T01:23:09.577Z,94933
2018-05-16T01:25:45.061Z,94926
2018-05-16T01:28:20.640Z,94929
2018-05-16T01:30:56.917Z,94923
2018-05-16T01:33:32.332Z,94927
2018-05-16T01:36:07.739Z,94922
2018-05-16T01:38:43.338Z,94921
2018-05-16T01:41:18.956Z,94916
2018-05-16T01:43:55.328Z,94925
2018-05-16T01:46:30.816Z,94923
2018-05-16T01:49:20.178Z,94924
2018-05-16T01:51:55.639Z,94923
2018-05-16T01:54:31.136Z,94917
2018-05-16T01:57:07.332Z,94922
2018-05-16T01:59:42.811Z,94914
2018-05-16T02:02:19.076Z,94916
2018-05-16T02:04:54.532Z,94913
2018-05-16T02:07:29.981Z,94911
2018-05-16T02:10:06.156Z,94913
2018-05-16T02:12:41.528Z,94909
2018-05-16T02:15:16.948Z,94903
2018-05-16T02:17:52.289Z,94899
2018-05-16T02:20:28.549Z,94904
2018-05-16T02:23:03.989Z,94899
2018-05-16T02:25:39.481Z,94901
2018-05-16T02:28:15.679Z,94897
2018-05-16T02:30:51.092Z,94901
2018-05-16T02:33:28.053Z,94903
2018-05-16T02:36:03.628Z,94902
2018-05-16T02:38:39.216Z,94904
2018-05-16T02:41:15.777Z,94894
2018-05-16T02:43:51.164Z,94897
2018-05-16T02:46:26.759Z,94900
2018-05-16T02:49:02.333Z,94900
2018-05-16T02:51:37.847Z,94901
2018-05-16T02:54:14.213Z,94901
2018-05-16T02:56:49.830Z,94893
2018-05-16T02:59:25.307Z,94894
2018-05-16T03:02:00.642Z,94893
2018-05-16T03:04:37.010Z,94903
2018-05-16T03:07:13.091Z,94905
2018-05-16T03:09:48.479Z,94904
2018-05-16T03:12:23.790Z,94908
2018-05-16T03:14:59.157Z,94904
2018-05-16T03:17:34.415Z,94906
2018-05-16T03:20:10.603Z,94904
2018-05-16T03:22:45.888Z,94906
2018-05-16T03:25:21.240Z,94906
2018-05-16T03:27:56.553Z,94908
2018-05-16T03:30:31.888Z,94904
2018-05-16T03:33:07.435Z,94912
2018-05-16T03:35:42.799Z,94916
2018-05-16T03:38:18.071Z,94921
2018-05-16T03:40:53.403Z,94914
2018-05-16T03:43:28.776Z,94914
2018-05-16T03:46:04.070Z,94915
2018-05-16T03:48:39.364Z,94908
2018-05-16T03:51:14.867Z,94906
2018-05-16T03:53:51.293Z,94907
2018-05-16T03:56:26.684Z,94908
2018-05-16T03:59:19.815Z,94914
2018-05-16T04:02:13.146Z,94914
2018-05-16T04:04:48.567Z,94910
2018-05-16T04:07:23.931Z,94912
2018-05-16T04:09:59.219Z,94916
2018-05-16T04:12:35.476Z,94924
2018-05-16T04:15:10.915Z,94917
2018-05-16T04:17:46.227Z,94919
2018-05-16T04:20:21.571Z,94921
2018-05-16T04:22:56.924Z,94920
2018-05-16T04:25:32.223Z,94924
2018-05-16T04:28:07.596Z,94924
2018-05-16T04:30:42.927Z,94923
2018-05-16T04:33:18.414Z,94920
2018-05-16T04:35:53.673Z,94922
2018-05-16T04:38:29.021Z,94930
2018-05-16T04:41:04.370Z,94925
2018-05-16T04:43:39.747Z,94931
2018-05-16T04:46:15.087Z,94927
2018-05-16T04:48:50.591Z,94934
2018-05-16T04:51:25.975Z,94933
2018-05-16T04:54:01.391Z,94938
2018-05-16T04:56:36.791Z,94935
2018-05-16T04:59:12.195Z,94938
2018-05-16T05:01:47.626Z,94936
2018-05-16T05:04:23.715Z,94936
2018-05-16T05:06:59.237Z,94931
2018-05-16T05:09:35.343Z,94934
2018-05-16T05:12:10.637Z,94932
2018-05-16T05:14:46.820Z,94928
2018-05-16T05:17:22.133Z,94932
2018-05-16T05:19:57.562Z,94933
2018-05-16T05:22:32.878Z,94932
2018-05-16T05:25:08.303Z,94934
2018-05-16T05:27:43.673Z,94930
2018-05-16T05:30:19.266Z,94934
2018-05-16T05:32:54.603Z,94926
2018-05-16T05:35:30.003Z,94924
2018-05-16T05:38:05.373Z,94930
2018-05-16T05:40:40.733Z,94929
2018-05-16T05:43:16.798Z,94932
2018-05-16T05:45:52.213Z,94936
2018-05-16T05:48:27.702Z,94934
2018-05-16T05:51:03.093Z,94932
2018-05-16T05:53:38.515Z,94932
2018-05-16T05:56:13.904Z,94931
2018-05-16T05:58:49.226Z,94921
2018-05-16T06:01:24.641Z,94929
2018-05-16T06:03:59.966Z,94924
2018-05-16T06:06:35.327Z,94936
2018-05-16T06:09:10.730Z,94940
2018-05-16T06:11:46.022Z,94943
2018-05-16T06:14:21.470Z,94942
2018-05-16T06:16:57.637Z,94947
2018-05-16T06:19:33.183Z,94946
2018-05-16T06:22:08.610Z,94944
2018-05-16T06:24:43.894Z,94947
2018-05-16T06:27:19.463Z,94952
2018-05-16T06:29:56.470Z,94949
2018-05-16T06:32:31.937Z,94952
2018-05-16T06:35:08.381Z,94953
2018-05-16T06:37:44.577Z,94955
2018-05-16T06:40:20.053Z,94958
2018-05-16T06:42:55.510Z,94951
2018-05-16T06:45:30.884Z,94955
2018-05-16T06:48:06.239Z,94955
2018-05-16T06:50:41.801Z,94957
2018-05-16T06:53:17.919Z,94960
2018-05-16T06:55:54.167Z,94957
2018-05-16T06:58:29.698Z,94959
2018-05-16T07:01:05.014Z,94955
2018-05-16T07:03:40.405Z,94958
2018-05-16T07:06:15.825Z,94958
2018-05-16T07:08:51.231Z,94960
2018-05-16T07:11:26.667Z,94966
2018-05-16T07:14:02.079Z,94963
2018-05-16T07:16:37.410Z,94966
2018-05-16T07:19:13.778Z,94968
2018-05-16T07:21:49.282Z,94970
2018-05-16T07:24:25.339Z,94968
2018-05-16T07:27:00.719Z,94967
2018-05-16T07:29:36.041Z,94967
2018-05-16T07:32:12.338Z,94967
2018-05-16T07:34:47.921Z,94970
2018-05-16T07:37:23.221Z,94970
2018-05-16T07:39:59.526Z,94971
2018-05-16T07:42:34.937Z,94968
2018-05-16T07:45:11.237Z,94963
2018-05-16T07:47:46.580Z,94964
2018-05-16T07:50:22.006Z,94961
2018-05-16T07:52:58.300Z,94965
2018-05-16T07:55:33.861Z,94960
2018-05-16T07:58:09.199Z,94960
2018-05-16T08:00:44.623Z,94966
2018-05-16T08:03:20.064Z,94968
2018-05-16T08:05:55.442Z,94962
2018-05-16T08:08:30.768Z,94965
2018-05-16T08:11:06.117Z,94967
2018-05-16T08:13:42.455Z,94967
2018-05-16T08:16:17.968Z,94966
2018-05-16T08:18:53.393Z,94970
2018-05-16T08:21:28.874Z,94968
2018-05-16T08:24:04.344Z,94968
2018-05-16T08:26:39.834Z,94966
2018-05-16T08:29:15.178Z,94963
2018-05-16T08:31:50.539Z,94965
2018-05-16T08:34:25.937Z,94962
2018-05-16T08:37:01.342Z,94960
2018-05-16T08:39:37.458Z,94963
2018-05-16T08:42:13.082Z,94966
2018-05-16T08:44:48.434Z,94965
2018-05-16T08:47:24.489Z,94966
2018-05-16T08:49:59.946Z,94964
2018-05-16T08:52:36.059Z,94966
2018-05-16T08:55:11.478Z,94966
2018-05-16T08:57:46.962Z,94967
2018-05-16T09:00:22.273Z,94964
2018-05-16T09:02:57.847Z,94967
2018-05-16T09:05:33.227Z,94963
2018-05-16T09:08:08.633Z,94963
2018-05-16T09:10:43.974Z,94961
2018-05-16T09:13:20.109Z,94966
2018-05-16T09:15:56.207Z,94963
2018-05-16T09:18:31.520Z,94967
2018-05-16T09:21:06.878Z,94961
2018-05-16T09:23:42.232Z,94961
2018-05-16T09:26:17.522Z,94961
2018-05-16T09:28:53.663Z,94963
2018-05-16T09:31:28.998Z,94959
2018-05-16T09:34:04.380Z,94959
2018-05-16T09:36:40.482Z,94954
2018-05-16T09:39:15.894Z,94958
2018-05-16T09:41:51.969Z,94958
2018-05-16T09:44:28.159Z,94956
2018-05-16T09:47:03.494Z,94959
2018-05-16T09:49:38.844Z,94958
2018-05-16T09:52:14.147Z,94958
2018-05-16T09:54:49.649Z,94962
2018-05-16T09:57:25.138Z,94959
2018-05-16T10:00:00.513Z,94958
2018-05-16T10:02:35.929Z,94960
2018-05-16T10:05:11.250Z,94956
2018-05-16T10:07:46.601Z,94954
2018-05-16T10:10:22.031Z,94951
2018-05-16T10:12:57.522Z,94952
2018-05-16T10:15:32.982Z,94947
2018-05-16T10:18:08.394Z,94948
2018-05-16T10:20:43.888Z,94950
2018-05-16T10:23:19.353Z,94948
2018-05-16T10:25:54.890Z,94947
2018-05-16T10:28:30.303Z,94952
2018-05-16T10:31:05.856Z,94954
2018-05-16T10:33:41.279Z,94951
2018-05-16T10:36:16.718Z,94961
2018-05-16T10:38:52.141Z,94963
2018-05-16T10:41:27.569Z,94951
2018-05-16T10:44:03.047Z,94953
2018-05-16T10:46:38.384Z,94947
2018-05-16T10:49:13.747Z,94948
2018-05-16T10:51:49.269Z,94951
2018-05-16T10:54:25.042Z,94950
2018-05-16T10:56:57.533Z,94948
2018-05-16T10:59:27.431Z,94950
2018-05-16T11:01:57.847Z,94952
2018-05-16T11:04:28.613Z,94953
2018-05-16T11:06:59.816Z,94951
2018-05-16T11:09:30.637Z,94954
2018-05-16T11:12:01.335Z,94956
2018-05-16T11:14:32.106Z,94961
2018-05-16T11:17:02.741Z,94954
2018-05-16T11:19:32.682Z,94959
2018-05-16T11:22:02.554Z,94957
2018-05-16T11:24:34.409Z,94954
2018-05-16T11:27:05.063Z,94957
2018-05-16T11:29:34.961Z,94948
2018-05-16T11:32:05.633Z,94952
2018-05-16T11:34:35.526Z,94955
2018-05-16T11:37:05.414Z,94951
2018-05-16T11:39:36.066Z,94954
2018-05-16T11:42:05.952Z,94952
2018-05-16T11:44:36.643Z,94956
2018-05-16T11:49:36.066Z,94962
2018-05-16T11:52:06.015Z,94959
2018-05-16T11:54:36.735Z,94957
2018-05-16T11:57:08.112Z,94954
2018-05-16T11:59:39.070Z,94954
2018-05-16T12:02:08.968Z,94949
2018-05-16T12:04:39.853Z,94956
2018-05-16T12:07:09.750Z,94960
2018-05-16T12:09:39.623Z,94957
2018-05-16T12:12:10.527Z,94963
2018-05-16T12:14:41.519Z,94960
2018-05-16T12:17:12.381Z,94960
2018-05-16T12:19:42.272Z,94958
2018-05-16T12:22:12.169Z,94953
2018-05-16T12:24:42.170Z,94960
2018-05-16T12:27:13.021Z,94960
2018-05-16T12:29:43.674Z,94964
2018-05-16T12:32:13.615Z,94961
2018-05-16T12:34:43.514Z,94965
2018-05-16T12:37:13.582Z,94962
2018-05-16T12:39:44.268Z,94959
2018-05-16T12:42:16.156Z,94968
2018-05-16T12:44:46.834Z,94964
2018-05-16T12:47:16.778Z,94964
2018-05-16T12:49:46.663Z,94969
2018-05-16T12:52:17.297Z,94968
2018-05-16T12:54:47.180Z,94964
2018-05-16T12:57:17.867Z,94968
2018-05-16T12:59:47.764Z,94975
2018-05-16T13:02:18.626Z,94973
2018-05-16T13:04:48.548Z,94970
2018-05-16T13:07:19.303Z,94976
2018-05-16T13:09:49.966Z,94978
2018-05-16T13:12:20.615Z,94977
2018-05-16T13:14:50.546Z,94978
2018-05-16T13:17:21.024Z,94982
2018-05-16T13:19:51.710Z,94983
2018-05-16T13:22:22.454Z,94981
2018-05-16T13:24:52.540Z,94982
2018-05-16T13:27:22.450Z,94979
2018-05-16T13:29:53.133Z,94982
2018-05-16T13:32:23.042Z,94979
2018-05-16T13:34:53.730Z,94975
2018-05-16T13:37:24.658Z,94972
2018-05-16T13:39:55.626Z,94977
2018-05-16T13:42:26.282Z,94975
2018-05-16T13:44:56.992Z,94975
2018-05-16T13:47:26.892Z,94970
2018-05-16T13:49:56.919Z,94972
2018-05-16T13:52:26.975Z,94975
2018-05-16T13:54:57.934Z,94974
2018-05-16T13:57:27.882Z,94980
2018-05-16T13:59:57.804Z,94989
2018-05-16T14:02:28.186Z,94987
2018-05-16T14:04:58.118Z,94990
2018-05-16T14:07:28.818Z,94988
2018-05-16T14:09:59.596Z,94987
2018-05-16T14:12:29.538Z,94990
2018-05-16T14:14:59.439Z,94989
2018-05-16T14:17:29.302Z,94986
2018-05-16T14:20:00.085Z,94994
2018-05-16T14:22:30.774Z,94990
2018-05-16T14:25:01.450Z,94998
2018-05-16T14:27:31.363Z,95003
2018-05-16T14:30:01.206Z,95000
2018-05-16T14:32:31.880Z,95003
2018-05-16T14:35:02.740Z,95006
2018-05-16T14:37:32.603Z,95004
2018-05-16T14:40:03.263Z,95002
2018-05-16T14:42:34.054Z,94997
2018-05-16T14:45:04.810Z,94999
2018-05-16T14:47:36.427Z,95000
2018-05-16T14:50:06.387Z,95003
2018-05-16T14:52:37.066Z,95001
2018-05-16T14:55:14.942Z,95009
2018-05-16T14:57:50.290Z,95011
2018-05-16T15:00:25.655Z,95008
2018-05-16T15:03:00.979Z,95012
2018-05-16T15:05:37.050Z,95007
2018-05-16T15:08:12.705Z,95013
2018-05-16T15:10:48.768Z,95012
2018-05-16T15:13:24.997Z,95018
2018-05-16T15:16:00.338Z,95016
2018-05-16T15:18:35.712Z,95015
2018-05-16T15:21:11.117Z,95015
2018-05-16T15:23:46.511Z,95010
2018-05-16T15:26:21.862Z,95016
2018-05-16T15:28:57.190Z,95010
2018-05-16T15:31:32.633Z,95008
2018-05-16T15:34:08.039Z,95005
2018-05-16T15:36:43.426Z,95006
2018-05-16T15:39:18.847Z,95004
2018-05-16T15:41:54.864Z,95011
2018-05-16T15:44:30.393Z,95003
2018-05-16T15:47:05.883Z,95004
2018-05-16T15:49:41.377Z,95006
2018-05-16T15:52:16.822Z,95006
2018-05-16T15:54:52.258Z,95008
2018-05-16T15:57:27.665Z,95014
2018-05-16T16:00:03.095Z,95010
2018-05-16T16:02:38.447Z,95010
2018-05-16T16:05:13.803Z,95001
2018-05-16T16:07:49.233Z,95009
2018-05-16T16:10:24.697Z,95016
2018-05-16T16:13:00.202Z,95007
2018-05-16T16:15:35.625Z,95009
2018-05-16T16:18:11.170Z,95009
2018-05-16T16:20:46.752Z,95012
2018-05-16T16:23:22.170Z,95006
2018-05-16T16:25:58.484Z,95006
2018-05-16T16:28:33.818Z,95006
2018-05-16T16:31:09.328Z,95008
2018-05-16T16:33:44.854Z,95011
2018-05-16T16:36:20.277Z,95007
2018-05-16T16:38:55.627Z,95004
2018-05-16T16:41:31.811Z,95003
2018-05-16T16:44:07.319Z,95005
2018-05-16T16:46:42.739Z,95002
2018-05-16T16:49:18.244Z,95007
2018-05-16T16:51:53.756Z,95006
2018-05-16T16:54:29.262Z,95013
2018-05-16T16:57:04.754Z,95013
2018-05-16T16:59:41.007Z,95017
2018-05-16T17:02:16.438Z,95017
2018-05-16T17:04:51.733Z,95014
2018-05-16T17:07:27.143Z,95008
2018-05-16T17:10:02.578Z,95008
2018-05-16T17:12:38.219Z,95008
2018-05-16T17:15:13.734Z,95011
2018-05-16T17:17:49.188Z,95016
2018-05-16T17:20:24.630Z,95014
2018-05-16T17:23:00.012Z,95018
2018-05-16T17:25:35.445Z,95015
2018-05-16T17:28:11.612Z,95016
2018-05-16T17:30:47.207Z,95019
2018-05-16T17:33:22.584Z,95017
2018-05-16T17:35:57.996Z,95026
2018-05-16T17:38:33.583Z,95026
2018-05-16T17:41:09.764Z,95030
2018-05-16T17:43:45.216Z,95027
2018-05-16T17:46:20.586Z,95033
2018-05-16T17:48:55.966Z,95030
2018-05-16T17:51:31.393Z,95033
2018-05-16T17:54:06.844Z,95040
2018-05-16T17:56:42.399Z,95049
2018-05-16T17:59:18.564Z,95040
2018-05-16T18:01:54.206Z,95044
2018-05-16T18:04:29.529Z,95045
2018-05-16T18:07:04.919Z,95051
2018-05-16T18:09:40.351Z,95052
2018-05-16T18:12:15.788Z,95047
2018-05-16T18:18:00.397Z,95055
2018-05-16T18:20:35.967Z,95054
2018-05-16T18:23:12.185Z,95053
2018-05-16T18:25:48.543Z,95055
2018-05-16T18:28:23.953Z,95057
2018-05-16T18:30:59.361Z,95069
2018-05-16T18:33:34.817Z,95067
2018-05-16T18:36:10.097Z,95071
2018-05-16T18:38:46.380Z,95073
2018-05-16T18:41:21.789Z,95073
2018-05-16T18:43:57.134Z,95078
2018-05-16T18:46:32.541Z,95075
2018-05-16T18:49:07.965Z,95083
2018-05-16T18:51:43.314Z,95081
2018-05-16T18:54:18.783Z,95076
2018-05-16T18:56:54.160Z,95076
2018-05-16T18:59:29.804Z,95077
2018-05-16T19:02:05.279Z,95080
2018-05-16T19:04:40.911Z,95084
2018-05-16T19:07:18.162Z,95082
2018-05-16T19:09:53.653Z,95088
2018-05-16T19:12:29.083Z,95086
2018-05-16T19:15:04.590Z,95089
2018-05-16T19:17:39.963Z,95091
2018-05-16T19:20:16.682Z,95096
2018-05-16T19:22:53.014Z,95092
2018-05-16T19:25:28.391Z,95095
2018-05-16T19:28:04.519Z,95102
2018-05-16T19:30:46.559Z,95105
2018-05-16T19:33:24.126Z,95113
2018-05-16T19:35:59.713Z,95117
2018-05-16T19:38:35.098Z,95112
2018-05-16T19:41:10.631Z,95113
2018-05-16T19:43:46.228Z,95117
2018-05-16T19:46:22.511Z,95121
2018-05-16T19:48:57.941Z,95120
2018-05-16T19:51:33.383Z,95117
2018-05-16T19:54:08.770Z,95119
2018-05-16T19:56:44.176Z,95123
2018-05-16T19:59:19.724Z,95120
2018-05-16T20:01:55.189Z,95121
2018-05-16T20:04:30.561Z,95123
2018-05-16T20:07:06.068Z,95122
2018-05-16T20:09:41.515Z,95122
2018-05-16T20:12:16.948Z,95127
2018-05-16T20:14:52.291Z,95124
2018-05-16T20:17:27.741Z,95125
2018-05-16T20:20:03.889Z,95124
2018-05-16T20:22:40.302Z,95127
2018-05-16T20:25:15.771Z,95132
2018-05-16T20:27:51.441Z,95134
2018-05-16T20:30:26.844Z,95137
2018-05-16T20:33:02.346Z,95137
2018-05-16T20:35:37.923Z,95139
2018-05-16T20:38:13.467Z,95144
2018-05-16T20:40:48.829Z,95139
2018-05-16T20:43:24.299Z,95141
2018-05-16T20:45:59.928Z,95141
2018-05-16T20:48:35.185Z,95138
2018-05-16T20:51:10.501Z,95141
2018-05-16T20:53:45.941Z,95140
2018-05-16T20:56:22.142Z,95136
2018-05-16T20:58:57.639Z,95138
2018-05-16T21:01:33.702Z,95137
2018-05-16T21:04:09.230Z,95144
2018-05-16T21:06:44.651Z,95149
2018-05-16T21:09:20.066Z,95151
2018-05-16T21:11:56.153Z,95159
2018-05-16T21:14:31.579Z,95153
2018-05-16T21:17:07.038Z,95157
2018-05-16T21:19:42.419Z,95157
2018-05-16T21:22:17.745Z,95162
2018-05-16T21:24:53.177Z,95163
2018-05-16T21:27:28.604Z,95163
2018-05-16T21:30:03.982Z,95169
2018-05-16T21:32:39.365Z,95169
2018-05-16T21:35:14.739Z,95166
2018-05-16T21:37:50.050Z,95169
2018-05-16T21:40:25.454Z,95173
2018-05-16T21:43:00.922Z,95181
2018-05-16T21:45:37.085Z,95183
2018-05-16T21:48:12.507Z,95182
2018-05-16T21:50:47.943Z,95183
2018-05-16T21:53:24.030Z,95183
2018-05-16T21:55:59.542Z,95185
2018-05-16T21:58:34.889Z,95195
2018-05-16T22:01:10.407Z,95196
2018-05-16T22:03:45.703Z,95193
2018-05-16T22:06:21.310Z,95198
2018-05-16T22:08:56.646Z,95198
2018-05-16T22:11:31.990Z,95197
2018-05-16T22:14:07.460Z,95190
2018-05-16T22:16:42.862Z,95188
2018-05-16T22:19:18.920Z,95188
2018-05-16T22:21:54.318Z,95193
2018-05-16T22:24:29.726Z,95195
2018-05-16T22:27:05.091Z,95196
2018-05-16T22:29:40.521Z,95192
2018-05-16T22:32:21.401Z,95187
2018-05-16T22:35:02.190Z,95182
2018-05-16T22:37:43.106Z,95186
2018-05-16T22:40:23.932Z,95193
2018-05-16T22:42:58.806Z,95189
2018-05-16T22:45:37.229Z,95187
2018-05-16T22:48:12.826Z,95186
2018-05-16T22:50:48.297Z,95187
2018-05-16T22:53:23.681Z,95185
2018-05-16T22:55:59.028Z,95184
2018-05-16T22:58:35.121Z,95190
2018-05-16T23:01:10.435Z,95190
2018-05-16T23:03:45.923Z,95193
2018-05-16T23:06:21.482Z,95188
2018-05-16T23:08:56.883Z,95185
2018-05-16T23:11:32.229Z,95179
2018-05-16T23:14:08.410Z,95176
2018-05-16T23:16:43.911Z,95172
2018-05-16T23:19:19.281Z,95173
2018-05-16T23:21:54.602Z,95168
2018-05-16T23:24:29.942Z,95166
2018-05-16T23:27:05.279Z,95168
2018-05-16T23:29:40.694Z,95170
2018-05-16T23:32:16.022Z,95173
2018-05-16T23:34:51.321Z,95174
2018-05-16T23:37:26.754Z,95178
2018-05-16T23:40:02.075Z,95174
2018-05-16T23:42:37.426Z,95175
2018-05-16T23:45:12.826Z,95175
2018-05-16T23:47:48.921Z,95172
2018-05-16T23:50:24.482Z,95169
2018-05-16T23:53:00.214Z,95168
2018-05-16T23:55:35.811Z,95168
2018-05-16T23:58:11.066Z,95166
